Innocent Merriment — WDB2799 — position and weather

sailwx.info

Track history (hours):
 
Tides and Currents Weather Stations Pressure Air Temp Water Temp Dewpoint Dewpoint Depression Visibility Wind Speed Wind Dir Waves Ship Positions

Innocent Merriment

Owner: Lyon, Myron C, San Diego, CA. More information available from US FCC via Universal Licensing System and Coast Guard Vessel Documentation Center.

Last reported at 2017-Oct-09 14:30 UTC. Time now 2017-Nov-22 05:39 UTC.
Position N 32°43' W 117°14'.
Warning: this ship's position is 43 days out of date.

Length 16 m.

Type: Pleasure craft. MMSI: 366879930.

Date/timePositionNaut miles runAvg speedWind from/ knotsBaromVisibWave heightAir tempDewpointWater temp
2017-Oct-09 14:30N 32°43' W 117°14'0 0.6
2017-Oct-09 14:00N 32°42' W 117°14'4 8.3
2017-Oct-09 13:31N 32°38' W 117°14'4 8.3
2017-Oct-09 13:00N 32°34' W 117°13'  
2017-Oct-06 23:23N 32°03' W 117°01'3 8.3
2017-Oct-06 22:59N 32°06' W 117°01'4 8.5
2017-Oct-06 22:29N 32°10' W 117°03'4 8.6
2017-Oct-06 22:00N 32°14' W 117°05'4 8.8
2017-Oct-06 21:30N 32°18' W 117°07'4 9.1
2017-Oct-06 21:00N 32°22' W 117°08'5 9.0
2017-Oct-06 20:29N 32°27' W 117°09'4 8.9
2017-Oct-06 20:00N 32°31' W 117°10'5 9.5
2017-Oct-06 19:30N 32°36' W 117°11'4 8.9
2017-Oct-06 19:00N 32°40' W 117°13'0 0.4
2017-Oct-06 18:30N 32°40' W 117°13'0 0.1
2017-Oct-06 18:00N 32°40' W 117°13'0 0.2
2017-Oct-06 17:30N 32°40' W 117°13'3 5.8
2017-Oct-06 17:00N 32°43' W 117°14'0 0.5
2017-Oct-06 16:25N 32°43' W 117°14'  
Track history (hours):
 
Tides and Currents Weather Stations Pressure Air Temp Water Temp Dewpoint Dewpoint Depression Visibility Wind Speed Wind Dir Waves Ship Positions

Innocent Merriment

Owner: Lyon, Myron C, San Diego, CA. More information available from US FCC via Universal Licensing System and Coast Guard Vessel Documentation Center.

Last reported at 2017-Oct-09 14:30 UTC. Time now 2017-Nov-22 05:39 UTC.
Position N 32°43' W 117°14'.
Warning: this ship's position is 43 days out of date.

Length 16 m.

Type: Pleasure craft. MMSI: 366879930.

Date/timePositionNaut miles runAvg speedWind from/ knotsBaromVisibWave heightAir tempDewpointWater temp
2017-Oct-09 14:30N 32°43' W 117°14'0 0.6
2017-Oct-09 14:00N 32°42' W 117°14'4 8.3
2017-Oct-09 13:31N 32°38' W 117°14'4 8.3
2017-Oct-09 13:00N 32°34' W 117°13'  
2017-Oct-06 23:23N 32°03' W 117°01'3 8.3
2017-Oct-06 22:59N 32°06' W 117°01'4 8.5
2017-Oct-06 22:29N 32°10' W 117°03'4 8.6
2017-Oct-06 22:00N 32°14' W 117°05'4 8.8
2017-Oct-06 21:30N 32°18' W 117°07'4 9.1
2017-Oct-06 21:00N 32°22' W 117°08'5 9.0
2017-Oct-06 20:29N 32°27' W 117°09'4 8.9
2017-Oct-06 20:00N 32°31' W 117°10'5 9.5
2017-Oct-06 19:30N 32°36' W 117°11'4 8.9
2017-Oct-06 19:00N 32°40' W 117°13'0 0.4
2017-Oct-06 18:30N 32°40' W 117°13'0 0.1
2017-Oct-06 18:00N 32°40' W 117°13'0 0.2
2017-Oct-06 17:30N 32°40' W 117°13'3 5.8
2017-Oct-06 17:00N 32°43' W 117°14'0 0.5
2017-Oct-06 16:25N 32°43' W 117°14'  

Dump ship's entire track history